Time;durP1;ratioP1;P1;durP2;ratioP2;P2;SDS_P1;SDS_P2;PMS_P1;PMS_P2;Temp;Humidity;BMP_temperature;BMP_pressure;BME280_temperature;BME280_humidity;BME280_pressure;Samples;Min_cycle;Max_cycle;Signal;HPM_P1;HPM_P2
2022/07/11 00:01:49;;;;;;;10.20;5.27;;;18.00;99.90;;;;;;6128577;23;20176;-84
2022/07/11 00:04:16;;;;;;;9.30;5.03;;;18.00;99.90;;;;;;6152884;23;20172;-83
2022/07/11 00:06:44;;;;;;;9.97;5.90;;;18.00;99.90;;;;;;6128942;23;20169;-82
2022/07/11 00:09:11;;;;;;;8.60;5.57;;;18.00;99.90;;;;;;6128113;23;20434;-85
2022/07/11 00:11:38;;;;;;;8.33;5.87;;;17.90;99.90;;;;;;6152893;23;20243;-86
2022/07/11 00:14:05;;;;;;;6.23;5.30;;;17.90;99.90;;;;;;6131516;23;20536;-85
2022/07/11 00:16:32;;;;;;;8.00;5.63;;;18.00;99.90;;;;;;6155795;23;20482;-85
2022/07/11 00:19:02;;;;;;;9.40;5.50;;;18.10;99.90;;;;;;6157724;23;20198;-86
2022/07/11 00:21:29;;;;;;;9.77;6.30;;;18.00;99.90;;;;;;6156980;23;20243;-86
2022/07/11 00:23:56;;;;;;;10.17;5.53;;;18.00;99.90;;;;;;6155823;23;20168;-84
2022/07/11 00:26:23;;;;;;;7.63;5.33;;;18.00;99.90;;;;;;6157138;23;20161;-85
2022/07/11 00:28:50;;;;;;;10.67;5.67;;;18.00;99.90;;;;;;6131880;23;20167;-85
2022/07/11 00:31:19;;;;;;;9.63;4.67;;;17.90;99.90;;;;;;6154865;23;20240;-85
2022/07/11 00:33:46;;;;;;;8.93;5.13;;;17.90;99.90;;;;;;6131847;23;20243;-85
2022/07/11 00:36:13;;;;;;;7.00;5.03;;;17.80;99.90;;;;;;6131258;23;20217;-85
2022/07/11 00:38:41;;;;;;;9.97;5.10;;;17.80;99.90;;;;;;6131955;23;20547;-85
2022/07/11 00:41:08;;;;;;;9.77;5.10;;;17.80;99.90;;;;;;6156282;23;20524;-84
2022/07/11 00:43:37;;;;;;;10.03;5.30;;;17.80;99.90;;;;;;6132823;23;20161;-85
2022/07/11 00:46:05;;;;;;;10.23;5.67;;;17.90;99.90;;;;;;6179881;23;20212;-85
2022/07/11 00:48:32;;;;;;;11.50;6.13;;;17.80;99.90;;;;;;6139454;23;20263;-85
2022/07/11 00:51:02;;;;;;;7.57;5.27;;;17.80;99.90;;;;;;6189181;23;20180;-85
2022/07/11 00:53:30;;;;;;;8.53;6.10;;;17.80;99.90;;;;;;6191595;23;20161;-85
2022/07/11 00:55:59;;;;;;;9.43;5.57;;;17.80;99.90;;;;;;6223549;23;20175;-85
2022/07/11 00:58:26;;;;;;;11.07;6.17;;;17.80;99.90;;;;;;6198363;23;20265;-85
2022/07/11 01:00:54;;;;;;;9.50;5.77;;;17.80;99.90;;;;;;6195611;23;20164;-85
2022/07/11 01:03:21;;;;;;;12.37;6.63;;;17.80;99.90;;;;;;6193696;23;20191;-85
2022/07/11 01:05:48;;;;;;;11.73;6.03;;;17.80;99.90;;;;;;6143030;23;20221;-85
2022/07/11 01:08:15;;;;;;;10.80;6.10;;;17.80;99.90;;;;;;6164022;23;20165;-82
2022/07/11 01:10:42;;;;;;;8.20;5.93;;;17.70;99.90;;;;;;6162313;23;20219;-84
2022/07/11 01:13:09;;;;;;;9.80;5.93;;;17.70;99.90;;;;;;6186545;23;20162;-84
2022/07/11 01:15:36;;;;;;;12.40;6.27;;;17.70;99.90;;;;;;6163403;23;20163;-86
2022/07/11 01:18:03;;;;;;;9.43;6.00;;;17.70;99.90;;;;;;6139449;23;20446;-85
2022/07/11 01:20:31;;;;;;;10.73;5.90;;;17.70;99.90;;;;;;6162679;23;20163;-85
2022/07/11 01:23:06;;;;;;;12.03;6.10;;;17.70;99.90;;;;;;6160836;23;20220;-85
2022/07/11 01:25:34;;;;;;;10.23;6.20;;;17.70;99.90;;;;;;6185178;23;20165;-85
2022/07/11 01:28:08;;;;;;;11.00;5.73;;;17.70;99.90;;;;;;6137968;23;20157;-86
2022/07/11 01:30:35;;;;;;;10.60;5.87;;;17.60;99.90;;;;;;6160813;23;20173;-85
2022/07/11 01:33:02;;;;;;;10.90;5.63;;;17.60;99.90;;;;;;6137112;23;20163;-86
2022/07/11 01:35:30;;;;;;;7.90;5.60;;;17.70;99.90;;;;;;6159228;23;20179;-85
2022/07/11 01:37:57;;;;;;;14.13;5.97;;;17.70;99.90;;;;;;6160364;23;20739;-81
2022/07/11 01:40:29;;;;;;;8.53;5.70;;;17.60;99.90;;;;;;6185427;23;20271;-85
2022/07/11 01:42:56;;;;;;;9.73;5.57;;;17.60;99.90;;;;;;6159936;23;20222;-85
2022/07/11 01:45:23;;;;;;;10.63;6.13;;;17.70;99.90;;;;;;6184490;23;20222;-85
2022/07/11 01:47:50;;;;;;;9.77;5.60;;;17.70;99.90;;;;;;6185536;23;20169;-85
2022/07/11 01:50:17;;;;;;;8.40;5.30;;;17.80;99.90;;;;;;6159619;23;20166;-86
2022/07/11 01:52:43;;;;;;;11.80;5.80;;;17.80;99.90;;;;;;6134140;23;20181;-86
2022/07/11 01:55:12;;;;;;;9.20;5.30;;;17.80;99.90;;;;;;6182780;23;20156;-86
2022/07/11 01:57:39;;;;;;;8.53;5.43;;;17.90;99.90;;;;;;6159666;23;20234;-85
2022/07/11 02:00:10;;;;;;;14.13;5.70;;;17.70;99.90;;;;;;6135606;23;20157;-86
2022/07/11 02:02:37;;;;;;;6.53;4.70;;;17.70;99.90;;;;;;6184747;23;20256;-85
2022/07/11 02:05:05;;;;;;;6.53;4.77;;;17.80;99.90;;;;;;6160649;23;20267;-86
2022/07/11 02:10:17;;;;;;;7.50;4.80;;;17.90;99.90;;;;;;6188040;23;20671;-83
2022/07/11 02:12:44;;;;;;;7.03;4.43;;;17.90;99.90;;;;;;6135742;23;20185;-86
2022/07/11 02:15:11;;;;;;;8.43;4.60;;;18.00;99.90;;;;;;6136308;23;20181;-86
2022/07/11 02:17:38;;;;;;;8.30;5.00;;;18.00;99.90;;;;;;6159501;23;20169;-85
2022/07/11 02:20:05;;;;;;;8.43;5.07;;;17.90;99.90;;;;;;6135765;23;20307;-85
2022/07/11 02:22:34;;;;;;;7.70;4.97;;;18.00;99.90;;;;;;6159737;23;20167;-85
2022/07/11 02:25:01;;;;;;;11.83;4.67;;;18.00;99.90;;;;;;6159631;23;20170;-85
2022/07/11 02:27:29;;;;;;;7.93;4.67;;;18.00;99.90;;;;;;6184600;23;20203;-85
2022/07/11 02:29:56;;;;;;;6.60;5.10;;;17.90;99.90;;;;;;6134514;23;20223;-86
2022/07/11 02:32:23;;;;;;;9.00;4.20;;;18.00;99.90;;;;;;6135687;23;20721;-86
2022/07/11 02:34:50;;;;;;;6.87;4.10;;;18.00;99.90;;;;;;6135809;23;20201;-85
2022/07/11 02:37:19;;;;;;;10.17;4.93;;;17.90;99.90;;;;;;6159540;23;20270;-83
2022/07/11 02:39:47;;;;;;;8.30;4.97;;;17.90;99.90;;;;;;6134394;23;20197;-84
2022/07/11 02:42:14;;;;;;;6.80;4.70;;;17.90;99.90;;;;;;6183603;23;20189;-85
2022/07/11 02:44:41;;;;;;;8.13;3.93;;;17.90;99.90;;;;;;6182344;23;20218;-83
2022/07/11 02:47:07;;;;;;;8.40;4.83;;;17.80;99.90;;;;;;6134658;23;20466;-86
2022/07/11 02:49:34;;;;;;;7.17;5.13;;;17.80;99.90;;;;;;6142362;23;20164;-85
2022/07/11 02:52:01;;;;;;;6.07;4.33;;;17.80;99.90;;;;;;6139075;23;20195;-86
2022/07/11 02:54:28;;;;;;;5.77;4.23;;;17.90;99.90;;;;;;6133008;23;20161;-85
2022/07/11 02:56:55;;;;;;;7.30;5.10;;;17.90;99.90;;;;;;6129779;23;20243;-86
2022/07/11 02:59:22;;;;;;;10.27;4.80;;;17.80;99.90;;;;;;6130374;23;20604;-85
2022/07/11 03:01:50;;;;;;;8.10;5.17;;;17.50;99.90;;;;;;6152858;23;20643;-85
2022/07/11 03:04:17;;;;;;;5.40;4.63;;;17.40;99.90;;;;;;6153910;23;20189;-85
2022/07/11 03:06:44;;;;;;;10.83;5.33;;;17.20;99.90;;;;;;6129751;23;20575;-85
2022/07/11 03:09:11;;;;;;;11.73;6.13;;;17.20;99.90;;;;;;6179254;23;20257;-85
2022/07/11 03:11:38;;;;;;;6.30;5.40;;;17.20;99.90;;;;;;6152155;23;20191;-81
2022/07/11 03:14:05;;;;;;;7.63;5.20;;;17.20;99.90;;;;;;6130982;23;20177;-85
2022/07/11 03:16:32;;;;;;;6.67;5.03;;;17.20;99.90;;;;;;6128931;23;20178;-85
2022/07/11 03:18:59;;;;;;;7.93;5.27;;;17.30;99.90;;;;;;6181005;23;20486;-85
2022/07/11 03:21:26;;;;;;;9.07;5.30;;;17.30;99.90;;;;;;6128701;23;20574;-82
2022/07/11 03:23:53;;;;;;;6.83;4.87;;;17.40;99.90;;;;;;6123214;23;20168;-85
2022/07/11 03:26:19;;;;;;;9.13;4.83;;;17.50;99.90;;;;;;6130359;23;20174;-85
2022/07/11 03:28:46;;;;;;;9.17;5.10;;;17.60;99.90;;;;;;6129787;23;20203;-85
2022/07/11 03:31:13;;;;;;;7.63;5.50;;;17.70;99.90;;;;;;6129109;23;20906;-82
2022/07/11 03:33:40;;;;;;;8.73;3.90;;;17.80;99.90;;;;;;6130869;23;20157;-84
2022/07/11 03:36:08;;;;;;;5.90;4.00;;;17.90;99.90;;;;;;6128254;23;20256;-85
2022/07/11 03:38:34;;;;;;;8.43;3.53;;;17.90;99.90;;;;;;6128900;23;20181;-85
2022/07/11 03:41:01;;;;;;;4.60;3.30;;;17.90;99.90;;;;;;6130461;23;20258;-85
2022/07/11 03:43:28;;;;;;;6.80;3.30;;;17.80;99.90;;;;;;6129121;23;20234;-85
2022/07/11 03:45:55;;;;;;;6.10;3.83;;;17.90;91.80;;;;;;6173001;23;20199;-85
2022/07/11 03:48:23;;;;;;;11.03;3.63;;;17.90;1.00;;;;;;6183092;23;20172;-81
2022/07/11 03:50:50;;;;;;;6.97;3.33;;;18.00;1.00;;;;;;6159521;23;20438;-86
2022/07/11 03:53:17;;;;;;;5.43;3.40;;;18.00;1.00;;;;;;6161288;23;20188;-84
2022/07/11 03:55:44;;;;;;;9.27;3.63;;;17.90;1.00;;;;;;6208815;23;20920;-82
2022/07/11 03:58:11;;;;;;;5.27;3.40;;;17.90;1.00;;;;;;6159582;23;20167;-82
2022/07/11 04:00:38;;;;;;;7.30;3.07;;;17.90;1.00;;;;;;6161109;23;20160;-85
2022/07/11 04:03:06;;;;;;;7.80;3.40;;;17.90;1.00;;;;;;6161609;23;20179;-86
2022/07/11 04:05:33;;;;;;;6.27;3.10;;;18.10;1.00;;;;;;6185596;23;20461;-84
2022/07/11 04:08:00;;;;;;;7.43;3.20;;;18.10;1.00;;;;;;6159363;23;20264;-84
2022/07/11 04:10:27;;;;;;;6.83;2.70;;;18.10;1.00;;;;;;6136066;23;20963;-85
2022/07/11 04:12:54;;;;;;;4.63;2.87;;;18.00;1.00;;;;;;6161257;23;20632;-85
2022/07/11 04:15:21;;;;;;;7.00;3.47;;;17.90;1.00;;;;;;6185953;23;20510;-84
2022/07/11 04:17:48;;;;;;;8.37;3.60;;;17.90;1.00;;;;;;6137296;23;20160;-84
2022/07/11 04:20:15;;;;;;;4.83;3.07;;;18.00;1.00;;;;;;6161051;23;20164;-85
2022/07/11 04:22:42;;;;;;;3.70;2.67;;;18.00;1.00;;;;;;6136640;23;20791;-84
2022/07/11 04:25:09;;;;;;;6.20;2.90;;;18.10;1.00;;;;;;6187376;23;20235;-84
2022/07/11 04:27:36;;;;;;;5.53;2.60;;;18.00;1.00;;;;;;6160571;23;20511;-84
2022/07/11 04:30:07;;;;;;;4.80;2.17;;;17.80;1.00;;;;;;6211989;23;20580;-85
2022/07/11 04:32:35;;;;;;;5.30;2.27;;;17.90;1.00;;;;;;6161090;23;20246;-86
2022/07/11 04:35:03;;;;;;;3.17;2.03;;;17.80;1.00;;;;;;6185314;23;20561;-85
2022/07/11 04:37:30;;;;;;;5.43;2.17;;;17.80;1.00;;;;;;6186390;23;20569;-86
2022/07/11 04:39:57;;;;;;;2.87;2.17;;;17.90;1.00;;;;;;6159900;23;20519;-85
2022/07/11 04:42:24;;;;;;;4.10;2.20;;;17.90;1.00;;;;;;6213265;23;20164;-86
2022/07/11 04:44:51;;;;;;;4.97;2.30;;;17.90;1.00;;;;;;6158065;23;20301;-84
2022/07/11 04:47:19;;;;;;;3.20;2.37;;;17.90;1.00;;;;;;6131948;23;20161;-86
2022/07/11 04:49:46;;;;;;;3.73;2.20;;;17.70;1.00;;;;;;6133025;23;20192;-85
2022/07/11 04:52:14;;;;;;;4.13;2.70;;;17.70;1.00;;;;;;6132473;23;20216;-84
2022/07/11 04:54:41;;;;;;;5.93;3.00;;;17.50;1.00;;;;;;6134227;23;20169;-85
2022/07/11 04:57:08;;;;;;;6.13;2.60;;;17.50;99.90;;;;;;6167228;23;20668;-84
2022/07/11 04:59:35;;;;;;;5.93;2.50;;;17.60;10.60;;;;;;6148966;23;20169;-85
2022/07/11 05:02:02;;;;;;;4.33;3.20;;;17.80;1.00;;;;;;6166943;23;20207;-85
2022/07/11 05:04:30;;;;;;;5.20;3.27;;;17.60;1.00;;;;;;6162726;23;20417;-84
2022/07/11 05:06:57;;;;;;;4.40;3.53;;;17.50;1.00;;;;;;6190410;23;20164;-85
2022/07/11 05:09:24;;;;;;;4.33;3.67;;;17.70;1.00;;;;;;6137525;23;20173;-85
2022/07/11 05:11:51;;;;;;;4.13;2.90;;;17.50;1.00;;;;;;6138679;23;20219;-85
2022/07/11 05:14:18;;;;;;;4.23;2.70;;;17.70;1.00;;;;;;6139876;23;20161;-85
2022/07/11 05:16:45;;;;;;;5.13;2.63;;;17.70;1.00;;;;;;6160932;23;20240;-84
2022/07/11 05:19:12;;;;;;;2.80;2.47;;;17.50;1.00;;;;;;6136313;23;20163;-84
2022/07/11 05:21:39;;;;;;;6.00;3.27;;;17.40;1.00;;;;;;6134286;23;20166;-85
2022/07/11 05:24:06;;;;;;;3.20;2.90;;;17.40;1.00;;;;;;6157044;23;20226;-83
2022/07/11 05:26:33;;;;;;;4.17;2.63;;;17.40;1.00;;;;;;6131215;23;20157;-84
2022/07/11 05:29:00;;;;;;;4.83;3.20;;;17.60;1.00;;;;;;6131786;23;20165;-84
2022/07/11 05:31:27;;;;;;;4.63;2.73;;;17.60;1.00;;;;;;6130065;23;20185;-84
2022/07/11 05:33:55;;;;;;;4.40;3.27;;;17.50;1.00;;;;;;6154896;23;20594;-85
2022/07/11 05:36:21;;;;;;;5.10;3.20;;;17.60;1.00;;;;;;6128586;23;20174;-84
2022/07/11 05:38:48;;;;;;;5.17;3.27;;;17.70;1.00;;;;;;6153087;23;20169;-83
2022/07/11 05:41:15;;;;;;;2.90;2.67;;;17.60;1.00;;;;;;6130577;23;20251;-84
2022/07/11 05:43:42;;;;;;;7.20;3.07;;;17.70;1.00;;;;;;6154627;23;20193;-82
2022/07/11 05:46:10;;;;;;;4.00;3.17;;;17.70;1.00;;;;;;6149308;23;20201;-85
2022/07/11 05:48:37;;;;;;;2.63;2.43;;;17.70;1.00;;;;;;6157644;23;20184;-79
2022/07/11 05:51:05;;;;;;;3.70;3.17;;;17.80;1.00;;;;;;6157765;23;20187;-83
2022/07/11 05:53:32;;;;;;;4.60;3.40;;;17.80;1.00;;;;;;6132455;23;20194;-80
2022/07/11 05:56:00;;;;;;;6.10;3.67;;;17.70;1.00;;;;;;6157572;23;20595;-80
2022/07/11 05:58:28;;;;;;;6.83;4.17;;;17.80;1.00;;;;;;6134727;23;20311;-82
2022/07/11 06:00:58;;;;;;;8.23;4.63;;;17.70;1.00;;;;;;6156808;23;20172;-81
2022/07/11 06:03:25;;;;;;;6.33;3.93;;;17.70;1.00;;;;;;6190505;23;20165;-81
2022/07/11 06:05:52;;;;;;;4.90;3.97;;;17.60;1.00;;;;;;6165766;23;20165;-80
2022/07/11 06:11:04;;;;;;;8.33;5.30;;;17.60;1.00;;;;;;6192758;23;20166;-81
2022/07/11 06:13:32;;;;;;;11.07;6.00;;;17.60;1.00;;;;;;6141069;23;20193;-84
2022/07/11 06:15:59;;;;;;;11.33;6.40;;;17.70;1.00;;;;;;6165169;23;20163;-81
2022/07/11 06:18:27;;;;;;;7.30;5.20;;;17.80;1.00;;;;;;6165270;23;20154;-81
2022/07/11 06:20:54;;;;;;;7.50;5.90;;;17.90;1.00;;;;;;6141455;23;20162;-82
2022/07/11 06:23:21;;;;;;;7.33;5.10;;;17.90;1.00;;;;;;6165307;23;20168;-82
2022/07/11 06:25:48;;;;;;;8.23;6.20;;;17.90;1.00;;;;;;6189872;23;20166;-82
2022/07/11 06:28:15;;;;;;;8.50;5.70;;;17.90;1.00;;;;;;6165955;23;20161;-82
2022/07/11 06:30:42;;;;;;;7.63;5.90;;;17.90;1.00;;;;;;6167489;23;20166;-82
2022/07/11 06:33:09;;;;;;;7.47;5.53;;;18.10;1.00;;;;;;6167738;23;20191;-81
2022/07/11 06:35:36;;;;;;;9.60;6.37;;;18.10;1.00;;;;;;6167434;23;20156;-82
2022/07/11 06:38:03;;;;;;;7.23;6.40;;;18.20;1.00;;;;;;6162099;23;20165;-83
2022/07/11 06:40:30;;;;;;;8.47;6.73;;;18.00;1.00;;;;;;6156857;23;20252;-83
2022/07/11 06:42:57;;;;;;;11.00;6.70;;;18.00;1.00;;;;;;6132940;23;20195;-83
2022/07/11 06:45:24;;;;;;;12.67;7.57;;;18.10;1.00;;;;;;6154179;23;20264;-84
2022/07/11 06:47:51;;;;;;;9.13;6.50;;;18.30;1.00;;;;;;6128460;23;20161;-81
2022/07/11 06:50:19;;;;;;;9.47;5.93;;;18.30;1.00;;;;;;6152989;23;20163;-83
2022/07/11 06:52:47;;;;;;;10.27;6.27;;;18.40;1.00;;;;;;6129109;23;20182;-83
2022/07/11 06:55:14;;;;;;;9.07;6.37;;;18.40;99.90;;;;;;6155301;23;20174;-86
2022/07/11 06:57:41;;;;;;;8.10;6.37;;;18.30;99.90;;;;;;6156149;23;20189;-84
2022/07/11 07:00:28;;;;;;;7.70;6.30;;;18.30;99.90;;;;;;6137379;23;20199;-83
2022/07/11 07:02:56;;;;;;;8.13;6.77;;;18.00;1.00;;;;;;6151673;23;20203;-86
2022/07/11 07:05:26;;;;;;;13.67;7.40;;;17.90;1.00;;;;;;6128462;23;20181;-86
2022/07/11 07:07:53;;;;;;;8.67;6.47;;;17.90;1.00;;;;;;6128700;23;20170;-85
2022/07/11 07:10:20;;;;;;;8.73;6.60;;;18.10;1.00;;;;;;6127422;23;20233;-81
2022/07/11 07:12:48;;;;;;;6.93;6.20;;;18.00;1.00;;;;;;6125532;23;20889;-81
2022/07/11 07:15:15;;;;;;;10.43;6.40;;;18.20;1.00;;;;;;6125821;23;20175;-82
2022/07/11 07:17:42;;;;;;;10.97;7.07;;;18.20;1.00;;;;;;6152062;23;20258;-81
2022/07/11 07:20:11;;;;;;;11.07;6.90;;;18.20;1.00;;;;;;6150170;23;20158;-81
2022/07/11 07:22:38;;;;;;;7.80;6.73;;;18.30;1.00;;;;;;6127383;23;20595;-81
2022/07/11 07:25:07;;;;;;;8.90;7.00;;;18.30;1.00;;;;;;6149633;23;20161;-80
2022/07/11 07:27:34;;;;;;;9.63;6.77;;;18.10;1.00;;;;;;6126040;23;20201;-81
2022/07/11 07:30:01;;;;;;;10.40;6.57;;;18.10;1.00;;;;;;6125447;23;20563;-81
2022/07/11 07:32:28;;;;;;;11.60;6.73;;;18.10;1.00;;;;;;6126342;23;20726;-81
2022/07/11 07:34:55;;;;;;;8.57;5.97;;;18.20;1.00;;;;;;6126760;23;20249;-81
2022/07/11 07:37:21;;;;;;;9.87;7.07;;;18.20;1.00;;;;;;6126336;23;20166;-81
2022/07/11 07:39:48;;;;;;;8.10;6.40;;;18.20;1.00;;;;;;6127668;23;20680;-82
2022/07/11 07:42:15;;;;;;;9.50;7.30;;;18.30;1.00;;;;;;6129144;23;20173;-81
2022/07/11 07:44:42;;;;;;;10.30;7.23;;;18.50;1.00;;;;;;6153479;23;20433;-81
2022/07/11 07:47:09;;;;;;;8.20;6.13;;;18.50;99.90;;;;;;6151740;23;20268;-81
2022/07/11 07:49:36;;;;;;;8.47;6.53;;;18.30;92.70;;;;;;6180478;23;20162;-82
2022/07/11 07:52:03;;;;;;;11.80;7.03;;;18.40;99.90;;;;;;6153975;23;20166;-81
2022/07/11 07:54:30;;;;;;;8.97;6.53;;;18.50;99.90;;;;;;6175958;23;20251;-81
2022/07/11 07:56:57;;;;;;;6.00;5.27;;;18.50;99.90;;;;;;6129768;23;20242;-81
2022/07/11 07:59:24;;;;;;;7.20;5.53;;;18.40;29.50;;;;;;6129281;23;20525;-81
2022/07/11 08:01:52;;;;;;;7.60;5.73;;;18.40;84.00;;;;;;6131542;23;20167;-81
2022/07/11 08:04:19;;;;;;;6.57;5.37;;;18.50;1.00;;;;;;6133151;23;20281;-82
2022/07/11 08:06:46;;;;;;;10.53;6.10;;;18.60;1.00;;;;;;6155574;23;20260;-81
2022/07/11 08:09:13;;;;;;;11.07;6.57;;;18.60;1.00;;;;;;6154299;23;20171;-81
2022/07/11 08:11:47;;;;;;;12.73;7.00;;;18.60;1.00;;;;;;6181304;23;20634;-81
2022/07/11 08:14:15;;;;;;;8.73;5.67;;;18.80;1.00;;;;;;6179657;23;20223;-81
2022/07/11 08:16:42;;;;;;;8.63;6.37;;;18.90;99.90;;;;;;6180469;23;20685;-82
2022/07/11 08:19:11;;;;;;;9.57;6.40;;;18.90;1.00;;;;;;6179394;23;20168;-81
2022/07/11 08:21:38;;;;;;;10.80;6.87;;;19.00;99.90;;;;;;6156257;23;20202;-81
2022/07/11 08:24:05;;;;;;;11.73;6.77;;;19.10;1.00;;;;;;6131830;23;20276;-82
2022/07/11 08:26:32;;;;;;;8.13;5.97;;;19.20;1.00;;;;;;6156469;23;20471;-81
2022/07/11 08:29:01;;;;;;;7.60;6.40;;;19.00;24.20;;;;;;6181586;23;20176;-82
2022/07/11 08:31:28;;;;;;;8.90;6.70;;;19.10;99.90;;;;;;6206843;23;20307;-82
2022/07/11 08:33:58;;;;;;;8.57;5.07;;;19.10;99.90;;;;;;6157385;23;20198;-83
2022/07/11 08:36:27;;;;;;;5.33;4.80;;;19.10;1.00;;;;;;6133820;23;20158;-82
2022/07/11 08:38:55;;;;;;;6.73;4.83;;;19.10;34.70;;;;;;6183274;23;20686;-81
2022/07/11 08:41:21;;;;;;;7.40;5.10;;;19.30;1.00;;;;;;6158315;23;20196;-84
2022/07/11 08:43:49;;;;;;;5.27;4.73;;;19.40;1.00;;;;;;6135693;23;20448;-83
2022/07/11 08:46:16;;;;;;;6.83;4.63;;;19.30;1.00;;;;;;6182941;23;20205;-84
2022/07/11 08:48:46;;;;;;;6.97;4.87;;;19.20;1.00;;;;;;6139057;23;20196;-83
2022/07/11 08:51:13;;;;;;;9.83;4.53;;;19.00;1.00;;;;;;6163621;23;20203;-84
2022/07/11 08:53:44;;;;;;;5.10;4.00;;;19.20;1.00;;;;;;6188898;23;20179;-83
2022/07/11 08:56:17;;;;;;;5.33;4.37;;;19.40;99.90;;;;;;6192287;23;20163;-84
2022/07/11 08:58:46;;;;;;;5.47;3.30;;;19.40;1.00;;;;;;6172672;23;20162;-84
2022/07/11 09:01:33;;;;;;;4.80;3.87;;;19.40;99.90;;;;;;6194550;23;20610;-84
2022/07/11 09:04:01;;;;;;;4.87;3.90;;;19.50;1.00;;;;;;6195405;23;20172;-83
2022/07/11 09:06:28;;;;;;;5.03;3.83;;;19.60;1.00;;;;;;6219719;23;20174;-86
2022/07/11 09:09:00;;;;;;;6.17;3.53;;;19.50;1.00;;;;;;6144156;23;20379;-84
2022/07/11 09:11:28;;;;;;;6.97;3.97;;;19.60;1.00;;;;;;6218809;23;20172;-84
2022/07/11 09:13:55;;;;;;;5.87;3.67;;;19.40;1.00;;;;;;6186594;23;20188;-84
2022/07/11 09:16:28;;;;;;;6.17;4.37;;;19.50;1.00;;;;;;6170071;23;20157;-82
2022/07/11 09:18:58;;;;;;;8.00;3.93;;;19.60;1.00;;;;;;6192051;23;20163;-83
2022/07/11 09:27:21;;;;;;;3.47;3.13;;;19.80;1.00;;;;;;6120456;23;20206;-83
2022/07/11 09:29:48;;;;;;;5.27;3.20;;;19.70;1.00;;;;;;6127810;23;20180;-81
2022/07/11 09:32:15;;;;;;;5.87;3.37;;;19.70;1.00;;;;;;6163384;23;20195;-82
2022/07/11 09:35:00;;;;;;;3.77;2.90;;;19.70;99.90;;;;;;6140204;23;20242;-82
2022/07/11 09:37:42;;;;;;;6.27;3.73;;;19.80;1.00;;;;;;6217433;23;20170;-81
2022/07/11 09:40:11;;;;;;;3.50;2.80;;;19.30;1.00;;;;;;6165393;23;20522;-81
2022/07/11 09:42:53;;;;;;;3.17;2.80;;;19.40;1.00;;;;;;6192699;23;20156;-82
2022/07/11 09:45:22;;;;;;;3.23;2.80;;;19.50;1.00;;;;;;6188369;23;20165;-83
2022/07/11 09:47:51;;;;;;;3.97;2.60;;;19.50;99.90;;;;;;6161498;23;20173;-81
2022/07/11 09:50:20;;;;;;;2.40;2.00;;;19.60;99.90;;;;;;6134538;23;20180;-82
2022/07/11 09:53:03;;;;;;;2.60;2.37;;;19.60;1.00;;;;;;6136375;23;20169;-85
2022/07/11 09:55:33;;;;;;;3.37;2.77;;;19.40;1.00;;;;;;6157097;23;20187;-86
2022/07/11 09:58:21;;;;;;;6.63;2.27;;;19.60;99.90;;;;;;6160236;23;20161;-86
2022/07/11 10:00:50;;;;;;;2.67;2.43;;;19.90;1.00;;;;;;6155975;23;20216;-87
2022/07/11 10:03:25;;;;;;;4.00;2.47;;;19.90;99.90;;;;;;6132654;23;20169;-84
2022/07/11 10:06:12;;;;;;;3.50;2.13;;;19.90;1.00;;;;;;6160267;23;20252;-85
2022/07/11 10:08:39;;;;;;;2.93;2.27;;;20.00;1.00;;;;;;6131045;23;20196;-84
2022/07/11 10:11:06;;;;;;;4.27;2.57;;;20.00;1.00;;;;;;6130710;23;20169;-85
2022/07/11 10:13:34;;;;;;;2.10;1.80;;;19.60;99.90;;;;;;6129331;23;20231;-83
2022/07/11 10:16:06;;;;;;;2.40;2.07;;;19.60;99.90;;;;;;6131451;23;20506;-84
2022/07/11 10:18:40;;;;;;;4.23;1.60;;;19.60;1.00;;;;;;6153920;23;20161;-82
2022/07/11 10:21:14;;;;;;;1.43;1.33;;;19.50;1.00;;;;;;6151583;23;20164;-84
2022/07/11 10:24:01;;;;;;;2.57;1.40;;;19.60;1.00;;;;;;6153232;23;20669;-84
2022/07/11 10:26:42;;;;;;;3.47;1.60;;;19.30;1.00;;;;;;6156612;23;20597;-84
2022/07/11 10:29:19;;;;;;;1.10;1.00;;;19.30;1.00;;;;;;6180837;23;20180;-84
2022/07/11 10:32:04;;;;;;;1.20;1.10;;;19.60;1.00;;;;;;6180191;23;20658;-83
2022/07/11 10:34:42;;;;;;;0.90;0.80;;;19.60;1.00;;;;;;6135703;23;20245;-84
2022/07/11 10:37:11;;;;;;;1.87;1.10;;;19.70;78.90;;;;;;6154004;23;20196;-83
2022/07/11 10:39:58;;;;;;;1.30;1.20;;;19.60;99.90;;;;;;6130845;23;20193;-84
2022/07/11 10:42:39;;;;;;;1.03;0.97;;;19.50;1.00;;;;;;6156460;23;20157;-83
2022/07/11 10:45:11;;;;;;;1.60;1.00;;;19.70;99.90;;;;;;6157088;23;20219;-84
2022/07/11 10:47:43;;;;;;;1.30;1.20;;;19.50;1.00;;;;;;6158249;23;20199;-84
2022/07/11 10:50:30;;;;;;;1.20;1.10;;;19.60;1.00;;;;;;6163973;23;20161;-83
2022/07/11 10:52:57;;;;;;;2.00;1.17;;;19.50;1.00;;;;;;6185335;23;20566;-84
2022/07/11 10:55:40;;;;;;;1.20;1.03;;;19.80;99.90;;;;;;6154211;23;20578;-84
2022/07/11 10:58:31;;;;;;;2.00;0.97;;;19.80;99.90;;;;;;6177557;23;20268;-85
2022/07/11 11:01:10;;;;;;;1.03;1.00;;;19.90;1.00;;;;;;6161969;23;20177;-85
2022/07/11 11:03:41;;;;;;;1.53;0.90;;;19.90;99.90;;;;;;6174772;23;20211;-84
2022/07/11 11:06:08;;;;;;;1.20;1.10;;;20.00;1.00;;;;;;6153240;23;20541;-87
2022/07/11 11:08:40;;;;;;;1.07;0.70;;;19.90;1.00;;;;;;6176166;23;20173;-86
2022/07/11 11:11:29;;;;;;;1.10;0.97;;;20.20;1.00;;;;;;6178932;23;20188;-87
2022/07/11 11:14:15;;;;;;;1.37;0.93;;;20.20;1.00;;;;;;6177613;23;20193;-84
2022/07/11 11:16:42;;;;;;;0.70;0.70;;;20.00;1.00;;;;;;6176746;23;20220;-85
2022/07/11 11:19:47;;;;;;;0.83;0.80;;;20.20;99.90;;;;;;6151145;23;20189;-85
2022/07/11 11:22:15;;;;;;;1.80;0.97;;;20.20;1.00;;;;;;6176278;23;20168;-85
2022/07/11 11:24:43;;;;;;;0.57;0.57;;;20.10;1.00;;;;;;6178448;23;20411;-88
2022/07/11 11:27:31;;;;;;;1.40;0.87;;;20.40;99.90;;;;;;6175654;23;20201;-85
2022/07/11 11:29:58;;;;;;;0.80;0.80;;;20.40;1.00;;;;;;6153633;23;20603;-85
2022/07/11 11:32:34;;;;;;;1.00;0.90;;;20.40;1.00;;;;;;6132671;23;20172;-84
2022/07/11 11:35:00;;;;;;;1.33;1.23;;;20.20;1.00;;;;;;6128190;23;20723;-84
2022/07/11 11:37:28;;;;;;;1.50;1.40;;;20.20;95.20;;;;;;6176719;23;20179;-85
2022/07/11 11:39:59;;;;;;;2.03;1.40;;;20.20;74.30;;;;;;6151788;23;20622;-85
2022/07/11 11:42:29;;;;;;;1.00;0.90;;;20.40;99.90;;;;;;6151426;23;20165;-86
2022/07/11 11:45:03;;;;;;;1.10;1.00;;;20.70;1.00;;;;;;6177071;23;20169;-86
2022/07/11 11:47:31;;;;;;;0.93;0.93;;;20.70;99.90;;;;;;6179581;23;20774;-84
2022/07/11 11:49:58;;;;;;;1.10;1.00;;;20.80;99.90;;;;;;6181840;23;20332;-85
2022/07/11 11:52:28;;;;;;;1.23;1.03;;;21.00;99.90;;;;;;6207890;23;20175;-86
2022/07/11 11:54:57;;;;;;;3.00;1.00;;;21.00;94.10;;;;;;6181333;23;20535;-86
2022/07/11 11:57:27;;;;;;;0.87;0.87;;;21.00;99.90;;;;;;6182012;23;20206;-86
2022/07/11 11:59:54;;;;;;;0.80;0.80;;;21.20;99.90;;;;;;6181277;23;20168;-85
2022/07/11 12:02:31;;;;;;;0.70;0.70;;;21.10;99.90;;;;;;6158224;23;20539;-85
2022/07/11 12:04:58;;;;;;;1.00;0.93;;;21.00;99.90;;;;;;6157804;23;20588;-86
2022/07/11 12:07:29;;;;;;;1.00;0.90;;;21.00;99.90;;;;;;6182838;23;20738;-85
2022/07/11 12:09:59;;;;;;;0.90;0.80;;;20.90;99.90;;;;;;6179637;23;20229;-86
2022/07/11 12:12:44;;;;;;;1.30;1.20;;;20.90;1.00;;;;;;6180276;23;20214;-86
2022/07/11 12:18:24;;;;;;;0.70;0.67;;;21.10;99.90;;;;;;6188751;23;20639;-85
2022/07/11 12:20:52;;;;;;;1.17;0.80;;;21.40;1.00;;;;;;6158638;23;20167;-86
2022/07/11 12:23:19;;;;;;;1.00;0.80;;;21.40;1.00;;;;;;6132931;23;20446;-84
2022/07/11 12:25:49;;;;;;;1.40;0.80;;;21.60;1.00;;;;;;6205591;23;20156;-81
2022/07/11 12:28:16;;;;;;;0.80;0.67;;;21.60;1.00;;;;;;6182941;23;20201;-82
2022/07/11 12:30:43;;;;;;;1.30;0.90;;;21.40;1.00;;;;;;6158248;23;20254;-81
2022/07/11 12:33:12;;;;;;;1.50;1.07;;;21.20;1.00;;;;;;6208381;23;20168;-83
2022/07/11 12:36:04;;;;;;;0.80;0.70;;;21.30;99.90;;;;;;6157785;23;20189;-81
2022/07/11 12:38:51;;;;;;;0.67;0.63;;;21.60;1.00;;;;;;6183026;23;20164;-81
2022/07/11 12:41:18;;;;;;;0.90;0.73;;;21.70;1.00;;;;;;6183063;23;20500;-79
2022/07/11 12:46:37;;;;;;;1.27;1.10;;;22.00;26.50;;;;;;6185459;23;20235;-82
2022/07/11 12:49:07;;;;;;;0.97;0.97;;;22.40;1.00;;;;;;6150737;23;20598;-83
2022/07/11 12:51:39;;;;;;;1.10;1.00;;;22.00;1.00;;;;;;6177201;23;20180;-83
2022/07/11 12:54:09;;;;;;;1.30;0.90;;;22.00;1.00;;;;;;6180370;23;20415;-82
2022/07/11 12:56:37;;;;;;;3.50;0.90;;;22.00;84.70;;;;;;6127748;23;20385;-82
2022/07/11 12:59:05;;;;;;;0.90;0.87;;;22.30;1.00;;;;;;6153283;23;20228;-83
2022/07/11 13:02:06;;;;;;;0.93;0.83;;;22.20;1.00;;;;;;6155854;23;20169;-80
2022/07/11 13:04:38;;;;;;;0.95;0.80;;;22.30;52.60;;;;;;6132345;23;20729;-82
2022/07/11 13:10:18;;;;;;;0.90;0.70;;;22.50;1.00;;;;;;6183979;23;20696;-80
2022/07/11 13:12:47;;;;;;;1.80;1.00;;;22.30;1.00;;;;;;6158341;23;20161;-81
2022/07/11 13:15:16;;;;;;;1.00;0.90;;;22.40;1.00;;;;;;6155641;23;20229;-81
2022/07/11 13:17:48;;;;;;;1.00;0.97;;;22.40;1.00;;;;;;6133098;23;20172;-80
2022/07/11 13:20:26;;;;;;;1.67;0.90;;;22.10;99.90;;;;;;6155899;23;20161;-81
2022/07/11 13:22:53;;;;;;;1.20;0.70;;;22.10;1.00;;;;;;6155838;23;20257;-80